Hilltop, Arizona
Current Conditions -  °F | °C
As of 5:15 AM on Sunday 25 Jan 2015 (Local Time) from KLSB Reporting Station
Clear Clear  
Wind Chill: 20°   Ceiling: Unl
Heat Index: 27°   Visibility: 10mi
Dew Point: 21°   Wind: 6mph
Humidity: 80%   Direction: 170°S
Pressure: 30.2"   Gusts: NA
Location:  32.164°N, 109.336°W
Report Text: KLSB 251215Z AUTO 17005KT 10SM CLR M03/M06 A3020 RMK AO2
Loading
Personal Weather Stations






























Interactive Weather Map New forecast layout! Learn more

10-Day Weather Forecast

Advertisements
Track Severe Weather on mobile